Sierra Nevada, Spain
Current Conditions -  °F | °C
As of 2:30 PM on Thursday 30 Oct 2014 (Local Time) from LEGR Reporting Station
Few Clouds Few Clouds  
Wind Chill: 82°   Ceiling: Unl
Heat Index: 82°   Visibility: 6mi
Dew Point: 39°   Wind: 5mph
Humidity: 21%   Direction: 150°SSE
Pressure: 30.12"   Gusts: NA
Location:  37.09°N, 3.39°W
Report Text: LEGR 301330Z 15004KT 110V230 9999 FEW060 28/04 Q1020
Loading
Personal Weather Stations






























Interactive Weather Map
Tropical Storm Tracking
New forecast layout! Learn more

10-Day Weather Forecast

Advertisements
Track Severe Weather on mobile